sensor_id;sensor_type;location;lat;lon;timestamp;P1;durP1;ratioP1;P2;durP2;ratioP2
55678;SDS011;41573;51.446;-2.018;2022-10-23T00:01:20;12.90;;;2.78;;
55678;SDS011;41573;51.446;-2.018;2022-10-23T00:03:50;10.93;;;3.47;;
55678;SDS011;41573;51.446;-2.018;2022-10-23T00:06:18;10.90;;;3.10;;
55678;SDS011;41573;51.446;-2.018;2022-10-23T00:08:47;12.43;;;3.28;;
55678;SDS011;41573;51.446;-2.018;2022-10-23T00:11:14;7.93;;;2.92;;
55678;SDS011;41573;51.446;-2.018;2022-10-23T00:13:42;9.65;;;2.83;;
55678;SDS011;41573;51.446;-2.018;2022-10-23T00:16:08;12.00;;;2.85;;
55678;SDS011;41573;51.446;-2.018;2022-10-23T00:18:34;5.50;;;2.22;;
55678;SDS011;41573;51.446;-2.018;2022-10-23T00:21:00;7.85;;;3.10;;
55678;SDS011;41573;51.446;-2.018;2022-10-23T00:23:26;12.68;;;3.60;;
55678;SDS011;41573;51.446;-2.018;2022-10-23T00:25:52;14.43;;;2.95;;
55678;SDS011;41573;51.446;-2.018;2022-10-23T00:28:17;10.93;;;3.10;;
55678;SDS011;41573;51.446;-2.018;2022-10-23T00:30:43;12.88;;;2.88;;
55678;SDS011;41573;51.446;-2.018;2022-10-23T00:33:08;13.23;;;2.80;;
55678;SDS011;41573;51.446;-2.018;2022-10-23T00:35:34;8.25;;;2.60;;
55678;SDS011;41573;51.446;-2.018;2022-10-23T00:38:03;8.30;;;2.28;;
55678;SDS011;41573;51.446;-2.018;2022-10-23T00:40:28;9.27;;;2.22;;
55678;SDS011;41573;51.446;-2.018;2022-10-23T00:42:54;5.65;;;2.58;;
55678;SDS011;41573;51.446;-2.018;2022-10-23T00:45:24;9.43;;;2.15;;
55678;SDS011;41573;51.446;-2.018;2022-10-23T00:47:51;7.43;;;2.03;;
55678;SDS011;41573;51.446;-2.018;2022-10-23T00:50:18;7.63;;;2.70;;
55678;SDS011;41573;51.446;-2.018;2022-10-23T00:52:47;7.60;;;2.05;;
55678;SDS011;41573;51.446;-2.018;2022-10-23T00:55:15;10.32;;;2.30;;
55678;SDS011;41573;51.446;-2.018;2022-10-23T00:57:43;6.97;;;2.63;;
55678;SDS011;41573;51.446;-2.018;2022-10-23T01:00:17;6.32;;;1.90;;
55678;SDS011;41573;51.446;-2.018;2022-10-23T01:02:48;7.07;;;1.57;;
55678;SDS011;41573;51.446;-2.018;2022-10-23T01:05:14;13.38;;;2.30;;
55678;SDS011;41573;51.446;-2.018;2022-10-23T01:07:46;7.88;;;1.80;;
55678;SDS011;41573;51.446;-2.018;2022-10-23T01:10:32;7.68;;;2.00;;
55678;SDS011;41573;51.446;-2.018;2022-10-23T01:13:05;3.08;;;1.55;;
55678;SDS011;41573;51.446;-2.018;2022-10-23T01:15:40;9.25;;;1.90;;
55678;SDS011;41573;51.446;-2.018;2022-10-23T01:18:39;9.95;;;1.95;;
55678;SDS011;41573;51.446;-2.018;2022-10-23T01:21:17;6.57;;;2.10;;
55678;SDS011;41573;51.446;-2.018;2022-10-23T01:29:14;4.72;;;1.90;;
55678;SDS011;41573;51.446;-2.018;2022-10-23T01:31:48;6.82;;;1.83;;
55678;SDS011;41573;51.446;-2.018;2022-10-23T01:34:27;6.88;;;1.83;;
55678;SDS011;41573;51.446;-2.018;2022-10-23T01:36:56;4.20;;;2.08;;
55678;SDS011;41573;51.446;-2.018;2022-10-23T01:39:26;6.55;;;2.05;;
55678;SDS011;41573;51.446;-2.018;2022-10-23T01:42:05;6.97;;;2.50;;
55678;SDS011;41573;51.446;-2.018;2022-10-23T01:44:35;7.65;;;2.03;;
55678;SDS011;41573;51.446;-2.018;2022-10-23T01:47:11;6.88;;;1.85;;
55678;SDS011;41573;51.446;-2.018;2022-10-23T01:49:40;5.60;;;1.98;;
55678;SDS011;41573;51.446;-2.018;2022-10-23T01:52:08;7.32;;;2.00;;
55678;SDS011;41573;51.446;-2.018;2022-10-23T01:54:38;10.88;;;2.38;;
55678;SDS011;41573;51.446;-2.018;2022-10-23T01:57:07;6.22;;;1.48;;
55678;SDS011;41573;51.446;-2.018;2022-10-23T01:59:37;7.72;;;1.90;;
55678;SDS011;41573;51.446;-2.018;2022-10-23T02:02:08;8.60;;;2.10;;
55678;SDS011;41573;51.446;-2.018;2022-10-23T02:04:46;9.05;;;2.10;;
55678;SDS011;41573;51.446;-2.018;2022-10-23T02:07:17;8.85;;;2.10;;
55678;SDS011;41573;51.446;-2.018;2022-10-23T02:09:43;9.10;;;2.38;;
55678;SDS011;41573;51.446;-2.018;2022-10-23T02:12:12;8.82;;;2.33;;
55678;SDS011;41573;51.446;-2.018;2022-10-23T02:28:22;6.38;;;2.30;;
55678;SDS011;41573;51.446;-2.018;2022-10-23T02:30:50;5.45;;;1.88;;
55678;SDS011;41573;51.446;-2.018;2022-10-23T02:33:16;5.80;;;1.75;;
55678;SDS011;41573;51.446;-2.018;2022-10-23T02:35:43;10.68;;;2.60;;
55678;SDS011;41573;51.446;-2.018;2022-10-23T02:40:57;7.28;;;1.75;;
55678;SDS011;41573;51.446;-2.018;2022-10-23T02:43:31;5.93;;;1.73;;
55678;SDS011;41573;51.446;-2.018;2022-10-23T02:46:06;8.35;;;1.70;;
55678;SDS011;41573;51.446;-2.018;2022-10-23T02:48:43;7.97;;;2.22;;
55678;SDS011;41573;51.446;-2.018;2022-10-23T02:51:27;3.20;;;1.92;;
55678;SDS011;41573;51.446;-2.018;2022-10-23T02:56:54;6.80;;;2.10;;
55678;SDS011;41573;51.446;-2.018;2022-10-23T02:59:37;7.70;;;2.10;;
55678;SDS011;41573;51.446;-2.018;2022-10-23T03:02:20;6.13;;;2.42;;
55678;SDS011;41573;51.446;-2.018;2022-10-23T03:04:50;9.60;;;2.47;;
55678;SDS011;41573;51.446;-2.018;2022-10-23T03:07:18;7.05;;;1.80;;
55678;SDS011;41573;51.446;-2.018;2022-10-23T03:09:44;6.13;;;1.95;;
55678;SDS011;41573;51.446;-2.018;2022-10-23T03:12:10;6.88;;;1.95;;
55678;SDS011;41573;51.446;-2.018;2022-10-23T03:14:35;6.38;;;2.25;;
55678;SDS011;41573;51.446;-2.018;2022-10-23T03:17:00;7.15;;;2.22;;
55678;SDS011;41573;51.446;-2.018;2022-10-23T03:19:26;7.43;;;2.58;;
55678;SDS011;41573;51.446;-2.018;2022-10-23T03:21:52;5.28;;;2.25;;
55678;SDS011;41573;51.446;-2.018;2022-10-23T03:24:17;7.65;;;3.03;;
55678;SDS011;41573;51.446;-2.018;2022-10-23T03:26:42;8.93;;;3.05;;
55678;SDS011;41573;51.446;-2.018;2022-10-23T03:29:08;7.88;;;2.70;;
55678;SDS011;41573;51.446;-2.018;2022-10-23T03:31:33;7.10;;;2.88;;
55678;SDS011;41573;51.446;-2.018;2022-10-23T03:33:58;5.53;;;2.92;;
55678;SDS011;41573;51.446;-2.018;2022-10-23T03:36:24;8.70;;;3.00;;
55678;SDS011;41573;51.446;-2.018;2022-10-23T03:38:49;7.25;;;2.92;;
55678;SDS011;41573;51.446;-2.018;2022-10-23T03:41:15;5.30;;;2.88;;
55678;SDS011;41573;51.446;-2.018;2022-10-23T03:43:40;9.15;;;3.30;;
55678;SDS011;41573;51.446;-2.018;2022-10-23T03:46:06;7.57;;;2.67;;
55678;SDS011;41573;51.446;-2.018;2022-10-23T03:48:34;5.30;;;3.17;;
55678;SDS011;41573;51.446;-2.018;2022-10-23T03:51:02;13.63;;;3.40;;
55678;SDS011;41573;51.446;-2.018;2022-10-23T03:53:28;7.07;;;3.63;;
55678;SDS011;41573;51.446;-2.018;2022-10-23T03:55:54;7.50;;;3.47;;
55678;SDS011;41573;51.446;-2.018;2022-10-23T03:58:19;6.25;;;2.85;;
55678;SDS011;41573;51.446;-2.018;2022-10-23T04:00:44;10.82;;;3.63;;
55678;SDS011;41573;51.446;-2.018;2022-10-23T04:03:10;9.45;;;3.50;;
55678;SDS011;41573;51.446;-2.018;2022-10-23T04:05:35;9.23;;;3.75;;
55678;SDS011;41573;51.446;-2.018;2022-10-23T04:08:01;6.47;;;3.20;;
55678;SDS011;41573;51.446;-2.018;2022-10-23T04:10:27;6.35;;;3.47;;
55678;SDS011;41573;51.446;-2.018;2022-10-23T04:12:52;10.02;;;3.30;;
55678;SDS011;41573;51.446;-2.018;2022-10-23T04:15:18;13.65;;;3.67;;
55678;SDS011;41573;51.446;-2.018;2022-10-23T04:17:43;6.55;;;3.20;;
55678;SDS011;41573;51.446;-2.018;2022-10-23T04:20:09;6.15;;;2.67;;
55678;SDS011;41573;51.446;-2.018;2022-10-23T04:22:34;6.53;;;3.33;;
55678;SDS011;41573;51.446;-2.018;2022-10-23T04:24:59;9.10;;;3.42;;
55678;SDS011;41573;51.446;-2.018;2022-10-23T04:27:25;9.82;;;3.45;;
55678;SDS011;41573;51.446;-2.018;2022-10-23T04:29:50;7.20;;;3.45;;
55678;SDS011;41573;51.446;-2.018;2022-10-23T04:32:16;8.75;;;3.97;;
55678;SDS011;41573;51.446;-2.018;2022-10-23T04:34:41;6.75;;;3.08;;
55678;SDS011;41573;51.446;-2.018;2022-10-23T04:37:06;7.22;;;3.03;;
55678;SDS011;41573;51.446;-2.018;2022-10-23T04:39:32;5.57;;;2.90;;
55678;SDS011;41573;51.446;-2.018;2022-10-23T04:41:57;7.72;;;3.00;;
55678;SDS011;41573;51.446;-2.018;2022-10-23T04:44:22;5.88;;;2.13;;
55678;SDS011;41573;51.446;-2.018;2022-10-23T04:46:48;3.08;;;2.28;;
55678;SDS011;41573;51.446;-2.018;2022-10-23T04:49:13;8.50;;;2.20;;
55678;SDS011;41573;51.446;-2.018;2022-10-23T04:51:39;5.55;;;2.30;;
55678;SDS011;41573;51.446;-2.018;2022-10-23T04:54:04;7.78;;;1.80;;
55678;SDS011;41573;51.446;-2.018;2022-10-23T04:56:30;4.90;;;2.03;;
55678;SDS011;41573;51.446;-2.018;2022-10-23T04:58:55;6.53;;;2.53;;
55678;SDS011;41573;51.446;-2.018;2022-10-23T05:01:21;5.60;;;1.92;;
55678;SDS011;41573;51.446;-2.018;2022-10-23T05:03:46;3.25;;;1.52;;
55678;SDS011;41573;51.446;-2.018;2022-10-23T05:06:11;5.53;;;2.00;;
55678;SDS011;41573;51.446;-2.018;2022-10-23T05:08:37;7.57;;;2.03;;
55678;SDS011;41573;51.446;-2.018;2022-10-23T05:11:02;6.35;;;2.05;;
55678;SDS011;41573;51.446;-2.018;2022-10-23T05:13:28;2.53;;;1.48;;
55678;SDS011;41573;51.446;-2.018;2022-10-23T05:15:53;6.55;;;1.70;;
55678;SDS011;41573;51.446;-2.018;2022-10-23T05:18:20;6.25;;;1.60;;
55678;SDS011;41573;51.446;-2.018;2022-10-23T05:20:47;2.50;;;1.42;;
55678;SDS011;41573;51.446;-2.018;2022-10-23T05:23:16;7.32;;;1.90;;
55678;SDS011;41573;51.446;-2.018;2022-10-23T05:25:44;1.90;;;1.40;;
55678;SDS011;41573;51.446;-2.018;2022-10-23T05:28:10;7.30;;;1.85;;
55678;SDS011;41573;51.446;-2.018;2022-10-23T05:30:35;3.63;;;2.00;;
55678;SDS011;41573;51.446;-2.018;2022-10-23T05:33:02;3.45;;;1.63;;
55678;SDS011;41573;51.446;-2.018;2022-10-23T05:35:27;7.53;;;1.85;;
55678;SDS011;41573;51.446;-2.018;2022-10-23T05:37:53;10.73;;;2.28;;
55678;SDS011;41573;51.446;-2.018;2022-10-23T05:40:20;10.23;;;2.00;;
55678;SDS011;41573;51.446;-2.018;2022-10-23T05:42:46;2.95;;;1.70;;
55678;SDS011;41573;51.446;-2.018;2022-10-23T05:45:11;3.65;;;1.55;;
55678;SDS011;41573;51.446;-2.018;2022-10-23T05:47:37;8.02;;;1.85;;
55678;SDS011;41573;51.446;-2.018;2022-10-23T05:50:02;7.88;;;1.88;;
55678;SDS011;41573;51.446;-2.018;2022-10-23T05:52:28;6.63;;;1.77;;
55678;SDS011;41573;51.446;-2.018;2022-10-23T05:54:53;4.82;;;2.00;;
55678;SDS011;41573;51.446;-2.018;2022-10-23T05:57:19;4.63;;;1.48;;
55678;SDS011;41573;51.446;-2.018;2022-10-23T05:59:44;2.42;;;1.80;;
55678;SDS011;41573;51.446;-2.018;2022-10-23T06:02:09;3.78;;;1.40;;
55678;SDS011;41573;51.446;-2.018;2022-10-23T06:04:35;3.35;;;1.48;;
55678;SDS011;41573;51.446;-2.018;2022-10-23T06:07:01;4.60;;;1.67;;
55678;SDS011;41573;51.446;-2.018;2022-10-23T06:09:27;3.63;;;1.52;;
55678;SDS011;41573;51.446;-2.018;2022-10-23T06:11:52;4.25;;;1.55;;
55678;SDS011;41573;51.446;-2.018;2022-10-23T06:14:17;5.68;;;1.67;;
55678;SDS011;41573;51.446;-2.018;2022-10-23T06:16:43;5.13;;;1.70;;
55678;SDS011;41573;51.446;-2.018;2022-10-23T06:19:09;4.38;;;1.70;;
55678;SDS011;41573;51.446;-2.018;2022-10-23T06:21:36;6.97;;;2.13;;
55678;SDS011;41573;51.446;-2.018;2022-10-23T06:24:02;6.40;;;1.67;;
55678;SDS011;41573;51.446;-2.018;2022-10-23T06:26:28;4.43;;;1.50;;
55678;SDS011;41573;51.446;-2.018;2022-10-23T06:28:54;3.53;;;1.80;;
55678;SDS011;41573;51.446;-2.018;2022-10-23T06:31:20;3.85;;;1.83;;
55678;SDS011;41573;51.446;-2.018;2022-10-23T06:33:50;2.70;;;1.60;;
55678;SDS011;41573;51.446;-2.018;2022-10-23T06:36:16;4.45;;;1.92;;
55678;SDS011;41573;51.446;-2.018;2022-10-23T06:38:42;4.45;;;1.95;;
55678;SDS011;41573;51.446;-2.018;2022-10-23T06:41:10;2.83;;;1.77;;
55678;SDS011;41573;51.446;-2.018;2022-10-23T06:43:38;6.65;;;1.42;;
55678;SDS011;41573;51.446;-2.018;2022-10-23T06:46:03;4.60;;;1.00;;
55678;SDS011;41573;51.446;-2.018;2022-10-23T06:48:29;3.08;;;0.93;;
55678;SDS011;41573;51.446;-2.018;2022-10-23T06:50:55;1.40;;;0.63;;
55678;SDS011;41573;51.446;-2.018;2022-10-23T06:53:21;0.93;;;0.70;;
55678;SDS011;41573;51.446;-2.018;2022-10-23T06:55:48;0.50;;;0.40;;
55678;SDS011;41573;51.446;-2.018;2022-10-23T06:58:15;0.85;;;0.50;;
55678;SDS011;41573;51.446;-2.018;2022-10-23T07:00:40;1.20;;;0.50;;
55678;SDS011;41573;51.446;-2.018;2022-10-23T07:03:06;0.52;;;0.45;;
55678;SDS011;41573;51.446;-2.018;2022-10-23T07:05:35;0.98;;;0.52;;
55678;SDS011;41573;51.446;-2.018;2022-10-23T07:08:00;3.20;;;0.77;;
55678;SDS011;41573;51.446;-2.018;2022-10-23T07:10:26;1.60;;;0.90;;
55678;SDS011;41573;51.446;-2.018;2022-10-23T07:12:52;0.52;;;0.47;;
55678;SDS011;41573;51.446;-2.018;2022-10-23T07:15:18;1.08;;;0.45;;
55678;SDS011;41573;51.446;-2.018;2022-10-23T07:17:43;3.45;;;0.82;;
55678;SDS011;41573;51.446;-2.018;2022-10-23T07:20:09;0.88;;;0.70;;
55678;SDS011;41573;51.446;-2.018;2022-10-23T07:22:34;1.23;;;0.70;;
55678;SDS011;41573;51.446;-2.018;2022-10-23T07:24:59;1.25;;;0.98;;
55678;SDS011;41573;51.446;-2.018;2022-10-23T07:27:25;1.15;;;0.60;;
55678;SDS011;41573;51.446;-2.018;2022-10-23T07:29:51;0.55;;;0.55;;
55678;SDS011;41573;51.446;-2.018;2022-10-23T07:32:17;0.60;;;0.60;;
55678;SDS011;41573;51.446;-2.018;2022-10-23T07:34:42;1.48;;;0.90;;
55678;SDS011;41573;51.446;-2.018;2022-10-23T07:37:08;4.85;;;1.17;;
55678;SDS011;41573;51.446;-2.018;2022-10-23T07:39:33;1.85;;;0.90;;
55678;SDS011;41573;51.446;-2.018;2022-10-23T07:41:59;0.85;;;0.85;;
55678;SDS011;41573;51.446;-2.018;2022-10-23T07:44:24;2.22;;;1.27;;
55678;SDS011;41573;51.446;-2.018;2022-10-23T07:46:50;3.75;;;1.05;;
55678;SDS011;41573;51.446;-2.018;2022-10-23T07:49:15;2.17;;;1.20;;
55678;SDS011;41573;51.446;-2.018;2022-10-23T07:51:40;1.08;;;0.85;;
55678;SDS011;41573;51.446;-2.018;2022-10-23T07:54:06;2.22;;;0.70;;
55678;SDS011;41573;51.446;-2.018;2022-10-23T07:56:32;1.58;;;0.88;;
55678;SDS011;41573;51.446;-2.018;2022-10-23T07:58:57;1.88;;;1.00;;
55678;SDS011;41573;51.446;-2.018;2022-10-23T08:01:30;2.83;;;1.38;;
55678;SDS011;41573;51.446;-2.018;2022-10-23T08:03:57;1.48;;;1.02;;
55678;SDS011;41573;51.446;-2.018;2022-10-23T08:06:23;2.13;;;1.00;;
55678;SDS011;41573;51.446;-2.018;2022-10-23T08:08:49;1.25;;;0.75;;
55678;SDS011;41573;51.446;-2.018;2022-10-23T08:11:15;1.02;;;0.90;;
55678;SDS011;41573;51.446;-2.018;2022-10-23T08:13:48;2.47;;;0.70;;
55678;SDS011;41573;51.446;-2.018;2022-10-23T08:16:14;0.73;;;0.50;;
55678;SDS011;41573;51.446;-2.018;2022-10-23T08:18:40;0.47;;;0.40;;
55678;SDS011;41573;51.446;-2.018;2022-10-23T08:21:06;0.55;;;0.43;;
55678;SDS011;41573;51.446;-2.018;2022-10-23T08:23:32;0.82;;;0.55;;
55678;SDS011;41573;51.446;-2.018;2022-10-23T08:26:01;0.50;;;0.50;;
55678;SDS011;41573;51.446;-2.018;2022-10-23T08:28:29;0.82;;;0.60;;
55678;SDS011;41573;51.446;-2.018;2022-10-23T08:30:55;1.35;;;0.70;;
55678;SDS011;41573;51.446;-2.018;2022-10-23T08:33:21;2.50;;;0.70;;
55678;SDS011;41573;51.446;-2.018;2022-10-23T08:35:47;0.70;;;0.50;;
55678;SDS011;41573;51.446;-2.018;2022-10-23T08:38:12;1.13;;;0.50;;
55678;SDS011;41573;51.446;-2.018;2022-10-23T08:40:38;0.55;;;0.50;;
55678;SDS011;41573;51.446;-2.018;2022-10-23T08:45:35;0.40;;;0.40;;
55678;SDS011;41573;51.446;-2.018;2022-10-23T08:48:12;1.63;;;0.70;;
55678;SDS011;41573;51.446;-2.018;2022-10-23T08:50:59;0.75;;;0.45;;
55678;SDS011;41573;51.446;-2.018;2022-10-23T08:59:00;1.13;;;0.70;;
55678;SDS011;41573;51.446;-2.018;2022-10-23T09:01:45;2.10;;;0.50;;
55678;SDS011;41573;51.446;-2.018;2022-10-23T09:04:13;0.40;;;0.40;;
55678;SDS011;41573;51.446;-2.018;2022-10-23T09:09:45;1.20;;;1.00;;
55678;SDS011;41573;51.446;-2.018;2022-10-23T09:17:56;1.55;;;0.93;;
55678;SDS011;41573;51.446;-2.018;2022-10-23T09:25:51;1.15;;;0.95;;
55678;SDS011;41573;51.446;-2.018;2022-10-23T09:28:22;3.78;;;1.70;;
55678;SDS011;41573;51.446;-2.018;2022-10-23T09:31:07;3.08;;;1.52;;
55678;SDS011;41573;51.446;-2.018;2022-10-23T09:33:36;2.53;;;1.48;;
55678;SDS011;41573;51.446;-2.018;2022-10-23T09:36:04;1.70;;;1.17;;
55678;SDS011;41573;51.446;-2.018;2022-10-23T09:46:41;4.85;;;1.75;;
55678;SDS011;41573;51.446;-2.018;2022-10-23T09:49:14;4.75;;;1.50;;
55678;SDS011;41573;51.446;-2.018;2022-10-23T09:51:50;2.95;;;1.63;;
55678;SDS011;41573;51.446;-2.018;2022-10-23T09:54:29;4.32;;;1.30;;
55678;SDS011;41573;51.446;-2.018;2022-10-23T09:56:57;1.83;;;1.27;;
55678;SDS011;41573;51.446;-2.018;2022-10-23T09:59:28;4.40;;;1.70;;
55678;SDS011;41573;51.446;-2.018;2022-10-23T10:01:57;6.55;;;1.40;;
55678;SDS011;41573;51.446;-2.018;2022-10-23T10:04:32;4.33;;;1.40;;
55678;SDS011;41573;51.446;-2.018;2022-10-23T10:07:03;7.00;;;2.25;;
55678;SDS011;41573;51.446;-2.018;2022-10-23T10:09:30;1.83;;;1.23;;
55678;SDS011;41573;51.446;-2.018;2022-10-23T10:50:36;3.03;;;0.90;;
55678;SDS011;41573;51.446;-2.018;2022-10-23T10:55:54;4.15;;;1.10;;
55678;SDS011;41573;51.446;-2.018;2022-10-23T10:58:25;1.63;;;0.80;;
55678;SDS011;41573;51.446;-2.018;2022-10-23T11:01:00;3.10;;;1.02;;
55678;SDS011;41573;51.446;-2.018;2022-10-23T11:03:52;5.10;;;1.00;;
55678;SDS011;41573;51.446;-2.018;2022-10-23T11:06:34;2.67;;;0.90;;
55678;SDS011;41573;51.446;-2.018;2022-10-23T11:09:04;5.05;;;0.88;;
55678;SDS011;41573;51.446;-2.018;2022-10-23T11:12:00;1.60;;;0.65;;
55678;SDS011;41573;51.446;-2.018;2022-10-23T11:14:28;2.38;;;0.60;;
55678;SDS011;41573;51.446;-2.018;2022-10-23T11:17:43;1.67;;;0.32;;
55678;SDS011;41573;51.446;-2.018;2022-10-23T11:22:36;2.63;;;0.80;;
55678;SDS011;41573;51.446;-2.018;2022-10-23T11:31:02;4.05;;;1.15;;
55678;SDS011;41573;51.446;-2.018;2022-10-23T11:41:50;3.00;;;0.80;;
55678;SDS011;41573;51.446;-2.018;2022-10-23T11:44:23;3.17;;;0.77;;
55678;SDS011;41573;51.446;-2.018;2022-10-23T11:47:02;4.32;;;0.90;;
55678;SDS011;41573;51.446;-2.018;2022-10-23T11:49:29;2.55;;;0.57;;
55678;SDS011;41573;51.446;-2.018;2022-10-23T11:51:59;2.35;;;0.52;;
55678;SDS011;41573;51.446;-2.018;2022-10-23T11:54:25;3.58;;;0.60;;
55678;SDS011;41573;51.446;-2.018;2022-10-23T12:01:58;1.95;;;0.70;;
55678;SDS011;41573;51.446;-2.018;2022-10-23T12:04:50;0.65;;;0.57;;
55678;SDS011;41573;51.446;-2.018;2022-10-23T12:07:22;2.40;;;0.85;;
55678;SDS011;41573;51.446;-2.018;2022-10-23T12:09:54;8.48;;;0.88;;
55678;SDS011;41573;51.446;-2.018;2022-10-23T12:12:28;1.25;;;0.68;;
55678;SDS011;41573;51.446;-2.018;2022-10-23T12:17:39;5.35;;;0.98;;
55678;SDS011;41573;51.446;-2.018;2022-10-23T12:22:37;1.45;;;0.47;;
55678;SDS011;41573;51.446;-2.018;2022-10-23T12:27:38;0.85;;;0.30;;
55678;SDS011;41573;51.446;-2.018;2022-10-23T12:35:45;0.57;;;0.38;;
55678;SDS011;41573;51.446;-2.018;2022-10-23T12:38:26;4.35;;;1.05;;
55678;SDS011;41573;51.446;-2.018;2022-10-23T12:40:59;4.07;;;0.90;;
55678;SDS011;41573;51.446;-2.018;2022-10-23T12:43:38;1.48;;;0.30;;
55678;SDS011;41573;51.446;-2.018;2022-10-23T12:46:27;2.53;;;0.70;;
55678;SDS011;41573;51.446;-2.018;2022-10-23T12:48:57;2.30;;;0.50;;
55678;SDS011;41573;51.446;-2.018;2022-10-23T12:51:28;0.30;;;0.20;;
55678;SDS011;41573;51.446;-2.018;2022-10-23T12:53:53;3.92;;;0.65;;
55678;SDS011;41573;51.446;-2.018;2022-10-23T12:56:19;0.57;;;0.52;;
55678;SDS011;41573;51.446;-2.018;2022-10-23T12:58:49;1.75;;;0.47;;
55678;SDS011;41573;51.446;-2.018;2022-10-23T13:01:25;1.88;;;0.45;;
55678;SDS011;41573;51.446;-2.018;2022-10-23T13:03:56;2.47;;;0.55;;
55678;SDS011;41573;51.446;-2.018;2022-10-23T13:06:25;1.55;;;0.40;;
55678;SDS011;41573;51.446;-2.018;2022-10-23T13:08:51;1.27;;;0.28;;
55678;SDS011;41573;51.446;-2.018;2022-10-23T13:11:18;0.82;;;0.50;;
55678;SDS011;41573;51.446;-2.018;2022-10-23T13:13:45;6.00;;;0.65;;
55678;SDS011;41573;51.446;-2.018;2022-10-23T13:16:16;0.43;;;0.40;;
55678;SDS011;41573;51.446;-2.018;2022-10-23T13:18:46;4.90;;;0.80;;
55678;SDS011;41573;51.446;-2.018;2022-10-23T13:21:22;2.25;;;0.38;;
55678;SDS011;41573;51.446;-2.018;2022-10-23T13:23:49;0.20;;;0.20;;
55678;SDS011;41573;51.446;-2.018;2022-10-23T13:26:24;0.32;;;0.32;;
55678;SDS011;41573;51.446;-2.018;2022-10-23T13:28:52;0.70;;;0.47;;
55678;SDS011;41573;51.446;-2.018;2022-10-23T13:31:23;3.25;;;0.65;;
55678;SDS011;41573;51.446;-2.018;2022-10-23T13:36:26;1.65;;;0.35;;
55678;SDS011;41573;51.446;-2.018;2022-10-23T13:39:01;2.47;;;0.55;;
55678;SDS011;41573;51.446;-2.018;2022-10-23T13:44:06;1.90;;;0.60;;
55678;SDS011;41573;51.446;-2.018;2022-10-23T13:46:33;1.90;;;0.50;;
55678;SDS011;41573;51.446;-2.018;2022-10-23T13:48:58;2.30;;;0.50;;
55678;SDS011;41573;51.446;-2.018;2022-10-23T13:51:25;1.85;;;0.38;;
55678;SDS011;41573;51.446;-2.018;2022-10-23T13:53:53;0.20;;;0.20;;
55678;SDS011;41573;51.446;-2.018;2022-10-23T13:56:20;0.63;;;0.40;;
55678;SDS011;41573;51.446;-2.018;2022-10-23T13:58:46;0.47;;;0.47;;
55678;SDS011;41573;51.446;-2.018;2022-10-23T14:01:19;0.60;;;0.43;;
55678;SDS011;41573;51.446;-2.018;2022-10-23T14:03:50;1.67;;;0.70;;
55678;SDS011;41573;51.446;-2.018;2022-10-23T14:06:16;3.28;;;0.60;;
55678;SDS011;41573;51.446;-2.018;2022-10-23T14:08:42;1.25;;;0.57;;
55678;SDS011;41573;51.446;-2.018;2022-10-23T14:11:11;4.03;;;0.80;;
55678;SDS011;41573;51.446;-2.018;2022-10-23T14:13:38;4.57;;;0.73;;
55678;SDS011;41573;51.446;-2.018;2022-10-23T14:16:04;6.38;;;0.70;;
55678;SDS011;41573;51.446;-2.018;2022-10-23T14:18:30;2.10;;;0.50;;
55678;SDS011;41573;51.446;-2.018;2022-10-23T14:21:02;1.75;;;0.70;;
55678;SDS011;41573;51.446;-2.018;2022-10-23T14:23:29;0.63;;;0.50;;
55678;SDS011;41573;51.446;-2.018;2022-10-23T14:26:04;0.98;;;0.38;;
55678;SDS011;41573;51.446;-2.018;2022-10-23T14:28:31;3.05;;;0.95;;
55678;SDS011;41573;51.446;-2.018;2022-10-23T14:31:01;0.45;;;0.45;;
55678;SDS011;41573;51.446;-2.018;2022-10-23T14:33:31;0.40;;;0.40;;
55678;SDS011;41573;51.446;-2.018;2022-10-23T14:35:57;2.17;;;0.63;;
55678;SDS011;41573;51.446;-2.018;2022-10-23T14:38:22;1.55;;;0.30;;
55678;SDS011;41573;51.446;-2.018;2022-10-23T14:40:48;2.33;;;0.45;;
55678;SDS011;41573;51.446;-2.018;2022-10-23T14:43:13;1.23;;;0.70;;
55678;SDS011;41573;51.446;-2.018;2022-10-23T14:45:39;6.15;;;0.70;;
55678;SDS011;41573;51.446;-2.018;2022-10-23T14:48:04;3.97;;;1.20;;
55678;SDS011;41573;51.446;-2.018;2022-10-23T14:50:30;3.03;;;1.08;;
55678;SDS011;41573;51.446;-2.018;2022-10-23T14:52:56;2.88;;;0.85;;
55678;SDS011;41573;51.446;-2.018;2022-10-23T14:55:21;3.05;;;0.73;;
55678;SDS011;41573;51.446;-2.018;2022-10-23T14:57:46;2.63;;;0.60;;
55678;SDS011;41573;51.446;-2.018;2022-10-23T15:00:12;1.45;;;0.90;;
55678;SDS011;41573;51.446;-2.018;2022-10-23T15:02:38;1.48;;;0.80;;
55678;SDS011;41573;51.446;-2.018;2022-10-23T15:05:03;0.88;;;0.70;;
55678;SDS011;41573;51.446;-2.018;2022-10-23T15:07:30;2.85;;;0.90;;
55678;SDS011;41573;51.446;-2.018;2022-10-23T15:09:55;1.90;;;0.90;;
55678;SDS011;41573;51.446;-2.018;2022-10-23T15:12:21;4.65;;;0.60;;
55678;SDS011;41573;51.446;-2.018;2022-10-23T15:14:46;8.70;;;0.82;;
55678;SDS011;41573;51.446;-2.018;2022-10-23T15:17:12;1.75;;;1.02;;
55678;SDS011;41573;51.446;-2.018;2022-10-23T15:19:37;3.42;;;1.17;;
55678;SDS011;41573;51.446;-2.018;2022-10-23T15:22:03;1.98;;;1.05;;
55678;SDS011;41573;51.446;-2.018;2022-10-23T15:24:28;3.63;;;1.30;;
55678;SDS011;41573;51.446;-2.018;2022-10-23T15:26:53;2.70;;;1.00;;
55678;SDS011;41573;51.446;-2.018;2022-10-23T15:29:19;2.50;;;1.10;;
55678;SDS011;41573;51.446;-2.018;2022-10-23T15:31:51;4.30;;;1.13;;
55678;SDS011;41573;51.446;-2.018;2022-10-23T15:34:19;2.95;;;1.05;;
55678;SDS011;41573;51.446;-2.018;2022-10-23T15:36:47;1.80;;;0.63;;
55678;SDS011;41573;51.446;-2.018;2022-10-23T15:39:13;3.58;;;1.00;;
55678;SDS011;41573;51.446;-2.018;2022-10-23T15:41:41;5.90;;;1.55;;
55678;SDS011;41573;51.446;-2.018;2022-10-23T15:44:08;3.50;;;1.88;;
55678;SDS011;41573;51.446;-2.018;2022-10-23T15:46:37;5.00;;;2.50;;
55678;SDS011;41573;51.446;-2.018;2022-10-23T15:49:02;5.93;;;2.78;;
55678;SDS011;41573;51.446;-2.018;2022-10-23T15:51:28;4.80;;;1.88;;
55678;SDS011;41573;51.446;-2.018;2022-10-23T15:53:54;4.60;;;1.98;;
55678;SDS011;41573;51.446;-2.018;2022-10-23T15:56:21;3.83;;;1.80;;
55678;SDS011;41573;51.446;-2.018;2022-10-23T15:58:47;2.50;;;1.50;;
55678;SDS011;41573;51.446;-2.018;2022-10-23T16:01:12;2.83;;;1.50;;
55678;SDS011;41573;51.446;-2.018;2022-10-23T16:03:38;7.50;;;4.13;;
55678;SDS011;41573;51.446;-2.018;2022-10-23T16:06:04;7.25;;;3.17;;
55678;SDS011;41573;51.446;-2.018;2022-10-23T16:08:32;7.95;;;2.17;;
55678;SDS011;41573;51.446;-2.018;2022-10-23T16:10:58;3.28;;;1.60;;
55678;SDS011;41573;51.446;-2.018;2022-10-23T16:13:24;2.53;;;1.52;;
55678;SDS011;41573;51.446;-2.018;2022-10-23T16:15:50;3.20;;;1.55;;
55678;SDS011;41573;51.446;-2.018;2022-10-23T16:18:17;2.20;;;1.30;;
55678;SDS011;41573;51.446;-2.018;2022-10-23T16:20:43;2.28;;;1.13;;
55678;SDS011;41573;51.446;-2.018;2022-10-23T16:23:09;6.78;;;1.10;;
55678;SDS011;41573;51.446;-2.018;2022-10-23T16:25:35;1.75;;;0.98;;
55678;SDS011;41573;51.446;-2.018;2022-10-23T16:28:01;2.65;;;1.02;;
55678;SDS011;41573;51.446;-2.018;2022-10-23T16:30:27;1.65;;;0.90;;
55678;SDS011;41573;51.446;-2.018;2022-10-23T16:32:52;1.75;;;1.00;;
55678;SDS011;41573;51.446;-2.018;2022-10-23T16:35:19;0.60;;;0.52;;
55678;SDS011;41573;51.446;-2.018;2022-10-23T16:37:45;3.20;;;0.82;;
55678;SDS011;41573;51.446;-2.018;2022-10-23T16:40:10;0.80;;;0.77;;
55678;SDS011;41573;51.446;-2.018;2022-10-23T16:42:36;1.60;;;0.75;;
55678;SDS011;41573;51.446;-2.018;2022-10-23T16:45:03;0.80;;;0.73;;
55678;SDS011;41573;51.446;-2.018;2022-10-23T16:47:29;1.23;;;0.80;;
55678;SDS011;41573;51.446;-2.018;2022-10-23T16:49:55;1.90;;;0.88;;
55678;SDS011;41573;51.446;-2.018;2022-10-23T16:52:21;1.50;;;0.70;;
55678;SDS011;41573;51.446;-2.018;2022-10-23T16:54:46;1.63;;;0.73;;
55678;SDS011;41573;51.446;-2.018;2022-10-23T16:57:11;1.70;;;0.80;;